Aérodrome :
LOGIN :

S'inscrire | Disclaimer

   EN    FR    IT 

 










Légende :    VFR   VFR Marginal   IFR   IFR Intensif   IFR Très Intensif
Visi : 
Plafond : 
>= 8 km
>= 3000ft
5 à 8 km
1000 à 3000 ft
1500m à 5 km
500 à 1000 ft
800 à 1500m
200 à 500 ft
< 800m
< 200 ft
Symboles :   Orages  Brouillard  Fortes neiges  Fortes précipitations  Vent > 20 kt
SIGMETs :   Divers  Orages  Givrage  Turbulence  Onde Orograph.  Cendres Volcan.






- Altitude de l'aérodrome : 34 ft
- Code IATA : BLK


EGNH - Blackpool

DERNIER METAR :
  • 221620Z 12010KT 9999 VCSH SCT021 08/05 Q0994 WS RWY10

METARs EXPIRÉS :
  • 221550Z 12009KT 9999 VCSH SCT040 08/06 Q0994 WS RWY10
  • 221520Z 12008KT 9999 FEW048 08/06 Q0993 WS RWY10
  • 221450Z 13011KT 9999 FEW020 08/06 Q0993 WS RWY10
  • 221420Z 13010KT 9999 FEW020 08/06 Q0993 WS RWY10
  • 221350Z 14010KT 9999 SCT016 08/06 Q0993 WS RWY10

TAF TAF EGNH
Valide du 22 à 15h jusqu'au 22 à 21h UTC


221356Z 2215/2221 11010KT 9999 SCT012
TEMPO 2215/2221 6000 RA BKN014
ATIS : +44 1253 343 434 (x8315)



MET'MAP, la Météo Aéronautique d'un coup d'oeil ! - Copyright ORBIFLY Décembre 2007 - Disclaimer

ORBIFLY MET'MAP TEAM :

Programmation & Développement : Alexandra Zaïnal
Conception & Développement : Baudouin d'Aumeries
Co-Programmation & Développement : Marc-Olivier Méhu
Soutien technique & logistique : Manuel Goepfert

Contact : metmap@orbifly.com




SOURCES & CREDITS :

   NOAA